sensor_id;sensor_type;location;lat;lon;timestamp;pressure;altitude;pressure_sealevel;temperature;humidity
42411;BME280;28056;51.112;0.984;2022-09-27T00:01:05;99404.93;;;5.21;77.96
42411;BME280;28056;51.112;0.984;2022-09-27T00:04:48;99405.30;;;5.25;76.93
42411;BME280;28056;51.112;0.984;2022-09-27T00:07:15;99400.15;;;4.63;78.49
42411;BME280;28056;51.112;0.984;2022-09-27T00:09:42;99401.33;;;4.87;78.83
42411;BME280;28056;51.112;0.984;2022-09-27T00:12:10;99401.62;;;4.84;78.85
42411;BME280;28056;51.112;0.984;2022-09-27T00:14:37;99399.16;;;5.05;78.76
42411;BME280;28056;51.112;0.984;2022-09-27T00:17:04;99401.45;;;4.91;78.39
42411;BME280;28056;51.112;0.984;2022-09-27T00:19:30;99398.17;;;5.04;78.80
42411;BME280;28056;51.112;0.984;2022-09-27T00:21:58;99399.85;;;4.96;78.83
42411;BME280;28056;51.112;0.984;2022-09-27T00:24:26;99396.94;;;4.99;78.93
42411;BME280;28056;51.112;0.984;2022-09-27T00:26:53;99397.73;;;4.78;79.61
42411;BME280;28056;51.112;0.984;2022-09-27T00:29:21;99396.73;;;4.86;79.69
42411;BME280;28056;51.112;0.984;2022-09-27T00:31:48;99401.47;;;5.00;80.07
42411;BME280;28056;51.112;0.984;2022-09-27T00:34:19;99396.70;;;4.95;79.42
42411;BME280;28056;51.112;0.984;2022-09-27T00:36:47;99401.53;;;4.74;80.13
42411;BME280;28056;51.112;0.984;2022-09-27T00:39:15;99405.34;;;4.66;80.36
42411;BME280;28056;51.112;0.984;2022-09-27T00:41:43;99408.14;;;4.75;80.16
42411;BME280;28056;51.112;0.984;2022-09-27T00:45:15;99409.16;;;4.78;80.44
42411;BME280;28056;51.112;0.984;2022-09-27T00:47:49;99404.54;;;4.89;80.40
42411;BME280;28056;51.112;0.984;2022-09-27T00:50:25;99403.75;;;4.87;80.51
42411;BME280;28056;51.112;0.984;2022-09-27T00:53:05;99406.57;;;5.05;80.71
42411;BME280;28056;51.112;0.984;2022-09-27T00:55:38;99404.59;;;5.10;80.83
42411;BME280;28056;51.112;0.984;2022-09-27T00:58:07;99403.05;;;5.03;80.78
42411;BME280;28056;51.112;0.984;2022-09-27T01:00:41;99402.71;;;5.04;81.09
42411;BME280;28056;51.112;0.984;2022-09-27T01:03:12;99403.30;;;5.24;80.87
42411;BME280;28056;51.112;0.984;2022-09-27T01:05:42;99402.74;;;5.23;81.03
42411;BME280;28056;51.112;0.984;2022-09-27T01:08:10;99404.17;;;5.29;80.57
42411;BME280;28056;51.112;0.984;2022-09-27T01:10:46;99409.16;;;5.33;80.41
42411;BME280;28056;51.112;0.984;2022-09-27T01:13:20;99408.67;;;5.41;80.18
42411;BME280;28056;51.112;0.984;2022-09-27T01:15:54;99409.47;;;5.59;79.87
42411;BME280;28056;51.112;0.984;2022-09-27T01:18:30;99409.00;;;5.45;78.50
42411;BME280;28056;51.112;0.984;2022-09-27T01:21:09;99407.78;;;5.31;79.84
42411;BME280;28056;51.112;0.984;2022-09-27T01:24:09;99405.83;;;5.23;80.31
42411;BME280;28056;51.112;0.984;2022-09-27T01:26:55;99401.43;;;5.49;80.28
42411;BME280;28056;51.112;0.984;2022-09-27T01:29:32;99400.13;;;5.35;80.93
42411;BME280;28056;51.112;0.984;2022-09-27T01:32:05;99398.01;;;5.31;81.11
42411;BME280;28056;51.112;0.984;2022-09-27T01:34:38;99393.39;;;5.12;81.06
42411;BME280;28056;51.112;0.984;2022-09-27T01:37:13;99397.73;;;5.32;81.30
42411;BME280;28056;51.112;0.984;2022-09-27T01:39:47;99401.51;;;5.17;80.81
42411;BME280;28056;51.112;0.984;2022-09-27T01:42:21;99398.45;;;5.28;80.64
42411;BME280;28056;51.112;0.984;2022-09-27T01:44:55;99399.16;;;5.53;79.77
42411;BME280;28056;51.112;0.984;2022-09-27T01:47:33;99394.59;;;5.64;80.08
42411;BME280;28056;51.112;0.984;2022-09-27T01:50:06;99389.35;;;5.17;80.53
42411;BME280;28056;51.112;0.984;2022-09-27T01:52:38;99385.46;;;5.63;79.89
42411;BME280;28056;51.112;0.984;2022-09-27T01:55:10;99386.16;;;5.79;80.34
42411;BME280;28056;51.112;0.984;2022-09-27T01:57:42;99381.90;;;5.47;80.45
42411;BME280;28056;51.112;0.984;2022-09-27T02:00:15;99381.14;;;5.17;81.07
42411;BME280;28056;51.112;0.984;2022-09-27T02:02:46;99382.98;;;5.38;81.41
42411;BME280;28056;51.112;0.984;2022-09-27T02:05:16;99380.87;;;5.37;81.59
42411;BME280;28056;51.112;0.984;2022-09-27T02:07:49;99384.60;;;5.48;81.33
42411;BME280;28056;51.112;0.984;2022-09-27T02:10:23;99384.95;;;5.07;81.77
42411;BME280;28056;51.112;0.984;2022-09-27T02:12:55;99387.46;;;5.32;82.00
42411;BME280;28056;51.112;0.984;2022-09-27T02:15:24;99391.77;;;5.52;81.37
42411;BME280;28056;51.112;0.984;2022-09-27T02:17:57;99390.91;;;5.57;82.05
42411;BME280;28056;51.112;0.984;2022-09-27T02:20:30;99392.73;;;5.26;82.41
42411;BME280;28056;51.112;0.984;2022-09-27T02:23:09;99392.79;;;5.48;82.44
42411;BME280;28056;51.112;0.984;2022-09-27T02:25:43;99394.41;;;5.73;82.20
42411;BME280;28056;51.112;0.984;2022-09-27T02:28:22;99392.84;;;5.55;82.51
42411;BME280;28056;51.112;0.984;2022-09-27T02:30:51;99390.97;;;5.83;82.17
42411;BME280;28056;51.112;0.984;2022-09-27T02:33:21;99389.73;;;5.20;82.80
42411;BME280;28056;51.112;0.984;2022-09-27T02:35:49;99386.48;;;5.53;82.47
42411;BME280;28056;51.112;0.984;2022-09-27T02:38:17;99385.54;;;5.82;81.58
42411;BME280;28056;51.112;0.984;2022-09-27T02:40:46;99383.32;;;5.78;81.92
42411;BME280;28056;51.112;0.984;2022-09-27T02:43:16;99386.33;;;5.64;81.38
42411;BME280;28056;51.112;0.984;2022-09-27T02:45:55;99381.44;;;5.72;81.21
42411;BME280;28056;51.112;0.984;2022-09-27T02:48:31;99381.53;;;5.88;80.22
42411;BME280;28056;51.112;0.984;2022-09-27T02:51:16;99379.36;;;5.68;80.24
42411;BME280;28056;51.112;0.984;2022-09-27T02:53:59;99380.14;;;5.74;79.36
42411;BME280;28056;51.112;0.984;2022-09-27T02:56:35;99376.40;;;5.79;79.06
42411;BME280;28056;51.112;0.984;2022-09-27T02:59:15;99370.08;;;5.61;79.25
42411;BME280;28056;51.112;0.984;2022-09-27T03:01:50;99367.73;;;5.54;79.17
42411;BME280;28056;51.112;0.984;2022-09-27T03:04:26;99367.16;;;5.51;79.14
42411;BME280;28056;51.112;0.984;2022-09-27T03:06:57;99362.59;;;5.95;78.87
42411;BME280;28056;51.112;0.984;2022-09-27T03:09:38;99361.34;;;5.60;78.21
42411;BME280;28056;51.112;0.984;2022-09-27T03:12:06;99361.01;;;5.68;78.63
42411;BME280;28056;51.112;0.984;2022-09-27T03:14:34;99360.92;;;5.49;78.06
42411;BME280;28056;51.112;0.984;2022-09-27T03:17:01;99356.96;;;5.73;77.68
42411;BME280;28056;51.112;0.984;2022-09-27T03:19:28;99357.00;;;5.60;78.10
42411;BME280;28056;51.112;0.984;2022-09-27T03:21:56;99359.05;;;5.72;78.06
42411;BME280;28056;51.112;0.984;2022-09-27T03:24:24;99364.14;;;5.41;78.53
42411;BME280;28056;51.112;0.984;2022-09-27T03:26:51;99367.80;;;5.59;78.25
42411;BME280;28056;51.112;0.984;2022-09-27T03:29:18;99366.23;;;5.02;78.54
42411;BME280;28056;51.112;0.984;2022-09-27T03:31:45;99365.55;;;5.32;78.77
42411;BME280;28056;51.112;0.984;2022-09-27T03:34:13;99364.16;;;5.14;78.58
42411;BME280;28056;51.112;0.984;2022-09-27T03:36:40;99366.00;;;5.25;78.92
42411;BME280;28056;51.112;0.984;2022-09-27T03:39:07;99361.95;;;5.43;78.10
42411;BME280;28056;51.112;0.984;2022-09-27T03:41:35;99362.85;;;5.25;78.67
42411;BME280;28056;51.112;0.984;2022-09-27T03:44:02;99366.66;;;5.31;78.42
42411;BME280;28056;51.112;0.984;2022-09-27T03:46:29;99368.47;;;4.87;78.75
42411;BME280;28056;51.112;0.984;2022-09-27T03:48:56;99365.19;;;5.34;78.28
42411;BME280;28056;51.112;0.984;2022-09-27T03:51:23;99359.16;;;5.22;78.05
42411;BME280;28056;51.112;0.984;2022-09-27T03:53:50;99356.90;;;5.15;77.33
42411;BME280;28056;51.112;0.984;2022-09-27T03:56:18;99355.73;;;5.16;78.32
42411;BME280;28056;51.112;0.984;2022-09-27T03:58:45;99363.65;;;4.95;79.09
42411;BME280;28056;51.112;0.984;2022-09-27T04:01:13;99367.60;;;5.05;78.92
42411;BME280;28056;51.112;0.984;2022-09-27T04:03:40;99366.98;;;5.11;78.72
42411;BME280;28056;51.112;0.984;2022-09-27T04:06:08;99368.52;;;5.09;79.00
42411;BME280;28056;51.112;0.984;2022-09-27T04:08:35;99366.30;;;4.98;78.81
42411;BME280;28056;51.112;0.984;2022-09-27T04:11:02;99360.50;;;5.22;78.06
42411;BME280;28056;51.112;0.984;2022-09-27T04:13:30;99356.55;;;5.27;77.82
42411;BME280;28056;51.112;0.984;2022-09-27T04:15:58;99354.59;;;5.15;78.17
42411;BME280;28056;51.112;0.984;2022-09-27T04:18:25;99357.10;;;4.94;78.19
42411;BME280;28056;51.112;0.984;2022-09-27T04:20:52;99362.22;;;5.33;77.64
42411;BME280;28056;51.112;0.984;2022-09-27T04:23:19;99365.39;;;4.96;78.50
42411;BME280;28056;51.112;0.984;2022-09-27T04:25:47;99366.22;;;5.04;79.89
42411;BME280;28056;51.112;0.984;2022-09-27T04:28:14;99366.25;;;4.99;78.18
42411;BME280;28056;51.112;0.984;2022-09-27T04:30:41;99363.18;;;4.88;78.29
42411;BME280;28056;51.112;0.984;2022-09-27T04:33:08;99364.66;;;4.96;78.21
42411;BME280;28056;51.112;0.984;2022-09-27T04:35:35;99363.42;;;4.59;78.46
42411;BME280;28056;51.112;0.984;2022-09-27T04:38:02;99367.70;;;4.81;78.72
42411;BME280;28056;51.112;0.984;2022-09-27T04:40:33;99372.48;;;4.75;78.33
42411;BME280;28056;51.112;0.984;2022-09-27T04:43:01;99374.36;;;5.07;77.68
42411;BME280;28056;51.112;0.984;2022-09-27T04:45:28;99374.13;;;4.74;78.87
42411;BME280;28056;51.112;0.984;2022-09-27T04:47:56;99376.39;;;4.43;79.43
42411;BME280;28056;51.112;0.984;2022-09-27T04:50:23;99378.70;;;4.45;80.09
42411;BME280;28056;51.112;0.984;2022-09-27T04:52:52;99379.17;;;4.52;81.12
42411;BME280;28056;51.112;0.984;2022-09-27T04:55:20;99375.51;;;4.31;81.06
42411;BME280;28056;51.112;0.984;2022-09-27T04:57:48;99375.96;;;4.59;80.88
42411;BME280;28056;51.112;0.984;2022-09-27T05:00:16;99371.89;;;4.60;80.74
42411;BME280;28056;51.112;0.984;2022-09-27T05:02:44;99374.67;;;4.38;80.73
42411;BME280;28056;51.112;0.984;2022-09-27T05:05:11;99373.98;;;4.49;79.44
42411;BME280;28056;51.112;0.984;2022-09-27T05:07:38;99372.06;;;4.44;79.41
42411;BME280;28056;51.112;0.984;2022-09-27T05:10:08;99373.30;;;4.42;79.42
42411;BME280;28056;51.112;0.984;2022-09-27T05:12:35;99379.14;;;4.34;79.78
42411;BME280;28056;51.112;0.984;2022-09-27T05:15:04;99380.56;;;4.27;80.55
42411;BME280;28056;51.112;0.984;2022-09-27T05:17:31;99379.30;;;4.15;81.23
42411;BME280;28056;51.112;0.984;2022-09-27T05:19:58;99381.47;;;3.94;82.65
42411;BME280;28056;51.112;0.984;2022-09-27T05:22:25;99379.68;;;3.90;83.14
42411;BME280;28056;51.112;0.984;2022-09-27T05:24:53;99380.56;;;3.91;83.23
42411;BME280;28056;51.112;0.984;2022-09-27T05:27:20;99379.04;;;3.97;83.29
42411;BME280;28056;51.112;0.984;2022-09-27T05:29:47;99378.36;;;3.63;82.88
42411;BME280;28056;51.112;0.984;2022-09-27T05:32:15;99382.39;;;3.72;83.58
42411;BME280;28056;51.112;0.984;2022-09-27T05:34:42;99382.83;;;3.82;83.45
42411;BME280;28056;51.112;0.984;2022-09-27T05:37:09;99382.90;;;3.62;83.81
42411;BME280;28056;51.112;0.984;2022-09-27T05:39:36;99383.86;;;3.66;84.47
42411;BME280;28056;51.112;0.984;2022-09-27T05:42:03;99382.48;;;3.99;84.28
42411;BME280;28056;51.112;0.984;2022-09-27T05:44:31;99381.49;;;3.63;84.43
42411;BME280;28056;51.112;0.984;2022-09-27T05:47:00;99381.96;;;3.36;84.78
42411;BME280;28056;51.112;0.984;2022-09-27T05:49:27;99380.54;;;3.88;84.33
42411;BME280;28056;51.112;0.984;2022-09-27T05:51:54;99384.90;;;3.71;84.28
42411;BME280;28056;51.112;0.984;2022-09-27T05:54:21;99379.63;;;3.81;83.81
42411;BME280;28056;51.112;0.984;2022-09-27T05:56:48;99377.32;;;3.56;83.84
42411;BME280;28056;51.112;0.984;2022-09-27T05:59:15;99380.60;;;3.63;84.15
42411;BME280;28056;51.112;0.984;2022-09-27T06:01:42;99383.99;;;3.25;84.62
42411;BME280;28056;51.112;0.984;2022-09-27T06:04:10;99384.62;;;3.57;84.26
42411;BME280;28056;51.112;0.984;2022-09-27T06:06:37;99388.63;;;3.25;84.39
42411;BME280;28056;51.112;0.984;2022-09-27T06:09:04;99383.58;;;3.49;83.78
42411;BME280;28056;51.112;0.984;2022-09-27T06:11:35;99384.54;;;3.68;83.72
42411;BME280;28056;51.112;0.984;2022-09-27T06:14:02;99386.27;;;4.03;83.45
42411;BME280;28056;51.112;0.984;2022-09-27T06:16:29;99382.65;;;3.28;83.77
42411;BME280;28056;51.112;0.984;2022-09-27T06:18:56;99380.50;;;3.55;83.60
42411;BME280;28056;51.112;0.984;2022-09-27T06:21:24;99383.31;;;3.37;83.53
42411;BME280;28056;51.112;0.984;2022-09-27T06:23:51;99381.03;;;3.46;83.51
42411;BME280;28056;51.112;0.984;2022-09-27T06:26:18;99381.84;;;3.49;83.50
42411;BME280;28056;51.112;0.984;2022-09-27T06:28:46;99386.93;;;3.78;82.84
42411;BME280;28056;51.112;0.984;2022-09-27T06:31:14;99386.77;;;3.61;81.86
42411;BME280;28056;51.112;0.984;2022-09-27T06:33:42;99385.24;;;3.60;82.47
42411;BME280;28056;51.112;0.984;2022-09-27T06:36:09;99388.71;;;3.56;83.09
42411;BME280;28056;51.112;0.984;2022-09-27T06:38:37;99389.22;;;3.57;83.53
42411;BME280;28056;51.112;0.984;2022-09-27T06:41:05;99386.62;;;3.60;83.17
42411;BME280;28056;51.112;0.984;2022-09-27T06:43:32;99379.68;;;3.82;82.74
42411;BME280;28056;51.112;0.984;2022-09-27T06:46:00;99381.56;;;3.79;83.14
42411;BME280;28056;51.112;0.984;2022-09-27T06:48:28;99380.74;;;3.78;82.89
42411;BME280;28056;51.112;0.984;2022-09-27T06:50:55;99378.99;;;3.90;83.25
42411;BME280;28056;51.112;0.984;2022-09-27T06:53:23;99381.48;;;3.83;82.92
42411;BME280;28056;51.112;0.984;2022-09-27T06:55:51;99383.91;;;4.01;82.88
42411;BME280;28056;51.112;0.984;2022-09-27T06:58:18;99380.04;;;4.27;82.41
42411;BME280;28056;51.112;0.984;2022-09-27T07:00:48;99383.20;;;3.85;82.98
42411;BME280;28056;51.112;0.984;2022-09-27T07:03:16;99380.69;;;4.25;82.30
42411;BME280;28056;51.112;0.984;2022-09-27T07:05:52;99377.73;;;4.41;81.48
42411;BME280;28056;51.112;0.984;2022-09-27T07:08:20;99380.82;;;4.22;80.91
42411;BME280;28056;51.112;0.984;2022-09-27T07:10:47;99382.66;;;4.42;81.29
42411;BME280;28056;51.112;0.984;2022-09-27T07:13:14;99387.55;;;4.37;81.42
42411;BME280;28056;51.112;0.984;2022-09-27T07:15:41;99389.27;;;4.77;81.07
42411;BME280;28056;51.112;0.984;2022-09-27T07:18:09;99384.48;;;4.89;80.56
42411;BME280;28056;51.112;0.984;2022-09-27T07:20:36;99380.99;;;4.54;80.18
42411;BME280;28056;51.112;0.984;2022-09-27T07:23:04;99377.56;;;4.64;79.57
42411;BME280;28056;51.112;0.984;2022-09-27T07:25:34;99377.49;;;4.95;79.54
42411;BME280;28056;51.112;0.984;2022-09-27T07:28:02;99374.69;;;5.04;77.96
42411;BME280;28056;51.112;0.984;2022-09-27T07:30:30;99378.70;;;5.24;77.66
42411;BME280;28056;51.112;0.984;2022-09-27T07:32:58;99383.95;;;5.46;77.10
42411;BME280;28056;51.112;0.984;2022-09-27T07:35:25;99383.23;;;5.74;76.43
42411;BME280;28056;51.112;0.984;2022-09-27T07:37:55;99379.54;;;5.16;76.12
42411;BME280;28056;51.112;0.984;2022-09-27T07:40:23;99382.76;;;5.53;75.85
42411;BME280;28056;51.112;0.984;2022-09-27T07:42:54;99373.61;;;5.61;75.47
42411;BME280;28056;51.112;0.984;2022-09-27T07:45:23;99378.94;;;5.73;74.49
42411;BME280;28056;51.112;0.984;2022-09-27T07:47:50;99377.53;;;5.53;75.30
42411;BME280;28056;51.112;0.984;2022-09-27T07:50:18;99375.42;;;5.39;75.89
42411;BME280;28056;51.112;0.984;2022-09-27T07:52:47;99369.78;;;5.65;75.51
42411;BME280;28056;51.112;0.984;2022-09-27T07:55:16;99371.39;;;5.93;75.53
42411;BME280;28056;51.112;0.984;2022-09-27T07:57:45;99374.60;;;5.50;75.55
42411;BME280;28056;51.112;0.984;2022-09-27T08:00:14;99375.22;;;5.75;76.24
42411;BME280;28056;51.112;0.984;2022-09-27T08:02:43;99376.68;;;5.32;76.22
42411;BME280;28056;51.112;0.984;2022-09-27T08:05:11;99376.81;;;5.38;75.55
42411;BME280;28056;51.112;0.984;2022-09-27T08:07:40;99376.92;;;5.48;75.39
42411;BME280;28056;51.112;0.984;2022-09-27T08:10:08;99378.30;;;5.40;76.12
42411;BME280;28056;51.112;0.984;2022-09-27T08:12:36;99370.80;;;5.76;75.89
42411;BME280;28056;51.112;0.984;2022-09-27T08:15:04;99369.60;;;6.88;73.70
42411;BME280;28056;51.112;0.984;2022-09-27T08:17:32;99368.86;;;5.83;74.27
42411;BME280;28056;51.112;0.984;2022-09-27T08:20:00;99365.60;;;6.16;74.25
42411;BME280;28056;51.112;0.984;2022-09-27T08:22:28;99365.53;;;6.70;73.36
42411;BME280;28056;51.112;0.984;2022-09-27T08:24:56;99366.16;;;6.05;73.79
42411;BME280;28056;51.112;0.984;2022-09-27T08:27:23;99361.20;;;5.75;73.64
42411;BME280;28056;51.112;0.984;2022-09-27T08:29:50;99363.48;;;6.89;72.66
42411;BME280;28056;51.112;0.984;2022-09-27T08:32:17;99360.01;;;6.48;72.85
42411;BME280;28056;51.112;0.984;2022-09-27T08:34:44;99356.26;;;6.56;72.26
42411;BME280;28056;51.112;0.984;2022-09-27T08:37:12;99353.13;;;6.33;72.33
42411;BME280;28056;51.112;0.984;2022-09-27T08:39:40;99346.17;;;6.43;72.48
42411;BME280;28056;51.112;0.984;2022-09-27T08:42:19;99345.37;;;6.75;72.84
42411;BME280;28056;51.112;0.984;2022-09-27T08:44:55;99346.18;;;6.64;71.23
42411;BME280;28056;51.112;0.984;2022-09-27T08:47:30;99341.92;;;6.20;71.84
42411;BME280;28056;51.112;0.984;2022-09-27T08:50:04;99348.77;;;6.43;72.23
42411;BME280;28056;51.112;0.984;2022-09-27T08:52:37;99345.80;;;6.53;71.75
42411;BME280;28056;51.112;0.984;2022-09-27T08:55:18;99349.38;;;6.61;71.55
42411;BME280;28056;51.112;0.984;2022-09-27T08:57:51;99349.48;;;6.83;72.45
42411;BME280;28056;51.112;0.984;2022-09-27T09:00:22;99351.27;;;6.69;71.41
42411;BME280;28056;51.112;0.984;2022-09-27T09:02:50;99348.81;;;6.86;69.80
42411;BME280;28056;51.112;0.984;2022-09-27T09:05:27;99349.31;;;6.80;70.43
42411;BME280;28056;51.112;0.984;2022-09-27T09:08:17;99346.75;;;6.85;70.27
42411;BME280;28056;51.112;0.984;2022-09-27T09:10:51;99353.16;;;6.82;70.95
42411;BME280;28056;51.112;0.984;2022-09-27T09:13:29;99344.17;;;6.75;70.20
42411;BME280;28056;51.112;0.984;2022-09-27T09:16:05;99340.71;;;7.05;71.32
42411;BME280;28056;51.112;0.984;2022-09-27T09:18:46;99343.89;;;7.24;70.40
42411;BME280;28056;51.112;0.984;2022-09-27T09:21:28;99337.65;;;6.90;68.94
42411;BME280;28056;51.112;0.984;2022-09-27T09:24:39;99342.81;;;6.63;68.87
42411;BME280;28056;51.112;0.984;2022-09-27T09:27:16;99343.21;;;7.00;69.99
42411;BME280;28056;51.112;0.984;2022-09-27T09:30:00;99348.67;;;6.96;69.51
42411;BME280;28056;51.112;0.984;2022-09-27T09:32:36;99339.40;;;7.15;69.62
42411;BME280;28056;51.112;0.984;2022-09-27T09:35:10;99339.82;;;7.29;69.11
42411;BME280;28056;51.112;0.984;2022-09-27T09:37:42;99340.39;;;7.42;68.47
42411;BME280;28056;51.112;0.984;2022-09-27T09:40:18;99339.47;;;7.71;68.55
42411;BME280;28056;51.112;0.984;2022-09-27T09:42:50;99341.37;;;7.76;66.49
42411;BME280;28056;51.112;0.984;2022-09-27T09:45:21;99337.65;;;7.61;66.80
42411;BME280;28056;51.112;0.984;2022-09-27T09:47:56;99337.75;;;8.06;66.53
42411;BME280;28056;51.112;0.984;2022-09-27T09:50:29;99337.26;;;8.02;66.29
42411;BME280;28056;51.112;0.984;2022-09-27T09:53:01;99330.66;;;7.84;64.90
42411;BME280;28056;51.112;0.984;2022-09-27T09:55:34;99331.87;;;8.17;64.66
42411;BME280;28056;51.112;0.984;2022-09-27T09:58:19;99324.39;;;8.21;63.76
42411;BME280;28056;51.112;0.984;2022-09-27T10:00:49;99323.03;;;8.33;62.97
42411;BME280;28056;51.112;0.984;2022-09-27T10:03:17;99324.80;;;8.64;65.23
42411;BME280;28056;51.112;0.984;2022-09-27T10:05:45;99316.16;;;8.50;62.58
42411;BME280;28056;51.112;0.984;2022-09-27T10:08:18;99317.61;;;8.58;62.15
42411;BME280;28056;51.112;0.984;2022-09-27T10:10:46;99315.60;;;8.59;62.30
42411;BME280;28056;51.112;0.984;2022-09-27T10:13:16;99314.48;;;8.72;60.57
42411;BME280;28056;51.112;0.984;2022-09-27T10:15:53;99312.97;;;8.94;60.08
42411;BME280;28056;51.112;0.984;2022-09-27T10:18:25;99310.18;;;9.13;60.25
42411;BME280;28056;51.112;0.984;2022-09-27T10:20:56;99309.34;;;9.96;61.76
42411;BME280;28056;51.112;0.984;2022-09-27T10:23:25;99308.11;;;9.65;57.91
42411;BME280;28056;51.112;0.984;2022-09-27T10:25:55;99307.25;;;8.77;60.30
42411;BME280;28056;51.112;0.984;2022-09-27T10:28:31;99297.08;;;8.99;61.10
42411;BME280;28056;51.112;0.984;2022-09-27T10:31:02;99295.89;;;9.41;60.41
42411;BME280;28056;51.112;0.984;2022-09-27T10:33:30;99290.17;;;8.78;58.85
42411;BME280;28056;51.112;0.984;2022-09-27T10:35:59;99291.71;;;9.30;59.64
42411;BME280;28056;51.112;0.984;2022-09-27T10:38:29;99281.01;;;9.03;60.72
42411;BME280;28056;51.112;0.984;2022-09-27T10:41:15;99280.62;;;9.32;59.10
42411;BME280;28056;51.112;0.984;2022-09-27T10:43:45;99276.03;;;10.01;58.99
42411;BME280;28056;51.112;0.984;2022-09-27T10:46:19;99272.73;;;9.11;58.53
42411;BME280;28056;51.112;0.984;2022-09-27T10:49:07;99267.53;;;9.45;60.80
42411;BME280;28056;51.112;0.984;2022-09-27T10:51:36;99268.62;;;9.50;59.20
42411;BME280;28056;51.112;0.984;2022-09-27T10:54:04;99264.98;;;9.76;58.31
42411;BME280;28056;51.112;0.984;2022-09-27T10:56:33;99265.76;;;10.73;57.35
42411;BME280;28056;51.112;0.984;2022-09-27T10:59:01;99266.83;;;10.00;56.38
42411;BME280;28056;51.112;0.984;2022-09-27T11:01:40;99261.26;;;9.92;58.67
42411;BME280;28056;51.112;0.984;2022-09-27T11:04:18;99257.15;;;10.09;58.97
42411;BME280;28056;51.112;0.984;2022-09-27T11:06:46;99253.97;;;10.08;57.32
42411;BME280;28056;51.112;0.984;2022-09-27T11:09:18;99253.38;;;9.75;56.41
42411;BME280;28056;51.112;0.984;2022-09-27T11:11:46;99253.79;;;9.66;58.75
42411;BME280;28056;51.112;0.984;2022-09-27T11:14:19;99250.73;;;10.15;57.51
42411;BME280;28056;51.112;0.984;2022-09-27T11:17:03;99243.82;;;9.70;58.29
42411;BME280;28056;51.112;0.984;2022-09-27T11:20:04;99234.18;;;9.92;57.82
42411;BME280;28056;51.112;0.984;2022-09-27T11:22:57;99236.27;;;9.84;57.42
42411;BME280;28056;51.112;0.984;2022-09-27T11:25:36;99230.71;;;9.73;59.41
42411;BME280;28056;51.112;0.984;2022-09-27T11:28:14;99232.59;;;10.00;58.73
42411;BME280;28056;51.112;0.984;2022-09-27T11:30:57;99227.06;;;9.54;59.01
42411;BME280;28056;51.112;0.984;2022-09-27T11:33:54;99228.96;;;9.07;59.44
42411;BME280;28056;51.112;0.984;2022-09-27T11:36:37;99232.40;;;9.43;59.42
42411;BME280;28056;51.112;0.984;2022-09-27T11:39:15;99224.39;;;10.27;58.01
42411;BME280;28056;51.112;0.984;2022-09-27T11:41:57;99216.31;;;10.96;58.30
42411;BME280;28056;51.112;0.984;2022-09-27T11:44:43;99216.17;;;11.24;55.92
42411;BME280;28056;51.112;0.984;2022-09-27T11:47:21;99206.91;;;11.24;52.97
42411;BME280;28056;51.112;0.984;2022-09-27T11:50:14;99206.66;;;12.01;54.77
42411;BME280;28056;51.112;0.984;2022-09-27T11:52:58;99201.57;;;10.96;55.43
42411;BME280;28056;51.112;0.984;2022-09-27T11:55:39;99197.93;;;10.73;55.16
42411;BME280;28056;51.112;0.984;2022-09-27T11:58:16;99191.66;;;11.51;53.90
42411;BME280;28056;51.112;0.984;2022-09-27T12:01:00;99187.04;;;11.13;55.62
42411;BME280;28056;51.112;0.984;2022-09-27T12:05:53;99190.33;;;10.82;56.57
42411;BME280;28056;51.112;0.984;2022-09-27T12:08:32;99183.34;;;11.22;56.22
42411;BME280;28056;51.112;0.984;2022-09-27T12:11:10;99181.05;;;10.89;55.91
42411;BME280;28056;51.112;0.984;2022-09-27T12:13:41;99183.96;;;10.58;54.77
42411;BME280;28056;51.112;0.984;2022-09-27T12:16:11;99186.41;;;10.17;56.03
42411;BME280;28056;51.112;0.984;2022-09-27T12:18:40;99180.98;;;10.19;55.98
42411;BME280;28056;51.112;0.984;2022-09-27T12:21:09;99176.11;;;9.98;57.88
42411;BME280;28056;51.112;0.984;2022-09-27T12:23:39;99178.45;;;9.96;58.36
42411;BME280;28056;51.112;0.984;2022-09-27T12:26:11;99175.19;;;9.59;58.25
42411;BME280;28056;51.112;0.984;2022-09-27T12:28:45;99175.40;;;9.51;59.04
42411;BME280;28056;51.112;0.984;2022-09-27T12:31:19;99180.21;;;9.18;60.70
42411;BME280;28056;51.112;0.984;2022-09-27T12:33:53;99173.44;;;8.45;65.29
42411;BME280;28056;51.112;0.984;2022-09-27T12:36:29;99170.78;;;7.75;70.11
42411;BME280;28056;51.112;0.984;2022-09-27T12:39:05;99177.65;;;7.82;69.95
42411;BME280;28056;51.112;0.984;2022-09-27T12:41:38;99174.25;;;7.98;70.95
42411;BME280;28056;51.112;0.984;2022-09-27T12:44:09;99172.38;;;8.03;68.48
42411;BME280;28056;51.112;0.984;2022-09-27T12:46:45;99179.78;;;7.94;71.42
42411;BME280;28056;51.112;0.984;2022-09-27T12:49:25;99179.75;;;7.38;72.05
42411;BME280;28056;51.112;0.984;2022-09-27T12:51:58;99184.80;;;7.02;73.26
42411;BME280;28056;51.112;0.984;2022-09-27T12:54:43;99183.29;;;7.43;75.05
42411;BME280;28056;51.112;0.984;2022-09-27T12:57:24;99175.24;;;7.22;75.48
42411;BME280;28056;51.112;0.984;2022-09-27T13:00:04;99177.42;;;6.89;76.96
42411;BME280;28056;51.112;0.984;2022-09-27T13:02:52;99180.23;;;7.03;78.50
42411;BME280;28056;51.112;0.984;2022-09-27T13:05:50;99178.81;;;6.41;80.41
42411;BME280;28056;51.112;0.984;2022-09-27T13:08:34;99172.72;;;6.74;81.58
42411;BME280;28056;51.112;0.984;2022-09-27T13:11:12;99166.63;;;7.11;83.31
42411;BME280;28056;51.112;0.984;2022-09-27T13:13:43;99165.58;;;7.26;82.49
42411;BME280;28056;51.112;0.984;2022-09-27T13:16:11;99167.25;;;7.21;84.07
42411;BME280;28056;51.112;0.984;2022-09-27T13:18:56;99165.84;;;7.14;81.90
42411;BME280;28056;51.112;0.984;2022-09-27T13:21:56;99163.09;;;7.18;80.15
42411;BME280;28056;51.112;0.984;2022-09-27T13:24:39;99156.17;;;7.15;81.16
42411;BME280;28056;51.112;0.984;2022-09-27T13:27:35;99154.51;;;7.15;80.99
42411;BME280;28056;51.112;0.984;2022-09-27T13:30:45;99155.21;;;6.88;82.37
42411;BME280;28056;51.112;0.984;2022-09-27T13:33:33;99152.89;;;7.31;81.83
42411;BME280;28056;51.112;0.984;2022-09-27T13:36:07;99147.65;;;7.87;79.37
42411;BME280;28056;51.112;0.984;2022-09-27T13:38:52;99142.22;;;8.32;78.81
42411;BME280;28056;51.112;0.984;2022-09-27T13:41:20;99135.63;;;7.67;77.32